Time;durP1;ratioP1;P1;durP2;ratioP2;P2;SDS_P1;SDS_P2;PMS_P1;PMS_P2;Temp;Humidity;BMP_temperature;BMP_pressure;BME280_temperature;BME280_humidity;BME280_pressure;Samples;Min_cycle;Max_cycle;Signal;HPM_P1;HPM_P2
2023/02/01 00:00:19;;;;;;;3.33;2.87;;;6.80;99.90;;;;;;5113685;28;20215;-87
2023/02/01 00:02:45;;;;;;;5.90;3.10;;;6.70;99.90;;;;;;5113725;28;20237;-86
2023/02/01 00:05:10;;;;;;;5.67;3.10;;;6.60;99.90;;;;;;5113783;28;20408;-86
2023/02/01 00:07:37;;;;;;;8.30;2.90;;;6.60;99.90;;;;;;5095470;28;20203;-87
2023/02/01 00:10:05;;;;;;;8.10;3.20;;;6.60;99.90;;;;;;5095512;28;20306;-86
2023/02/01 00:12:30;;;;;;;4.10;3.40;;;6.60;99.90;;;;;;5095193;28;20380;-86
2023/02/01 00:14:56;;;;;;;5.00;3.10;;;6.60;99.90;;;;;;5095188;28;20644;-86
2023/02/01 00:17:22;;;;;;;9.73;3.67;;;6.60;99.90;;;;;;5113553;28;20434;-84
2023/02/01 00:19:48;;;;;;;6.20;3.47;;;6.50;99.90;;;;;;5095398;28;20423;-84
2023/02/01 00:22:14;;;;;;;9.57;4.00;;;6.50;99.90;;;;;;5113766;28;20442;-84
2023/02/01 00:24:40;;;;;;;9.43;3.83;;;6.40;99.90;;;;;;5096967;28;20237;-83
2023/02/01 00:27:05;;;;;;;8.33;4.57;;;6.40;99.90;;;;;;5099236;28;20554;-84
2023/02/01 00:29:31;;;;;;;7.10;4.20;;;6.40;99.90;;;;;;5098902;28;20513;-85
2023/02/01 00:31:56;;;;;;;7.57;4.03;;;6.30;99.90;;;;;;5099319;28;20271;-85
2023/02/01 00:34:22;;;;;;;8.00;4.30;;;6.30;99.90;;;;;;5117599;28;20232;-84
2023/02/01 00:36:48;;;;;;;7.13;5.20;;;6.20;99.90;;;;;;5118186;28;20176;-85
2023/02/01 00:39:14;;;;;;;8.67;4.70;;;6.10;99.90;;;;;;5098894;28;20313;-85
2023/02/01 00:41:40;;;;;;;9.73;4.75;;;6.20;99.90;;;;;;5099344;28;20176;-85
2023/02/01 00:44:06;;;;;;;10.40;5.43;;;6.20;99.90;;;;;;5098772;28;20200;-85
2023/02/01 00:46:32;;;;;;;11.10;5.82;;;6.10;99.90;;;;;;5099831;28;20927;-86
2023/02/01 00:48:58;;;;;;;10.30;4.67;;;6.10;99.90;;;;;;5116944;28;20238;-85
2023/02/01 00:51:26;;;;;;;5.65;4.20;;;6.10;99.90;;;;;;5098700;28;20178;-85
2023/02/01 00:53:52;;;;;;;6.75;4.18;;;6.00;99.90;;;;;;5098531;28;20208;-86
2023/02/01 00:56:19;;;;;;;10.65;5.20;;;5.90;99.90;;;;;;5098295;28;20245;-85
2023/02/01 00:58:44;;;;;;;7.50;4.10;;;5.90;99.90;;;;;;5116586;28;20200;-84
2023/02/01 01:01:19;;;;;;;8.30;4.60;;;5.90;99.90;;;;;;5098475;28;20228;-85
2023/02/01 01:03:53;;;;;;;9.50;4.75;;;6.00;99.90;;;;;;5098192;28;20749;-84
2023/02/01 01:06:25;;;;;;;11.50;5.28;;;6.10;99.90;;;;;;5098632;28;20644;-85
2023/02/01 01:08:53;;;;;;;8.23;4.60;;;6.10;99.90;;;;;;5116452;28;20203;-85
2023/02/01 01:11:25;;;;;;;7.80;4.47;;;6.10;99.90;;;;;;5116154;28;20223;-85
2023/02/01 01:13:52;;;;;;;9.32;4.80;;;6.10;99.90;;;;;;5116503;28;20552;-84
2023/02/01 01:16:19;;;;;;;7.57;4.43;;;6.10;99.90;;;;;;5098197;28;20215;-85
2023/02/01 01:18:46;;;;;;;9.10;5.43;;;6.10;99.90;;;;;;5097994;28;20192;-83
2023/02/01 01:21:14;;;;;;;7.20;4.72;;;6.10;99.90;;;;;;5098097;28;20649;-85
2023/02/01 01:23:40;;;;;;;12.27;6.68;;;6.10;99.90;;;;;;5100111;28;20202;-85
2023/02/01 01:26:08;;;;;;;13.50;5.30;;;6.10;99.90;;;;;;5119218;28;20685;-85
2023/02/01 01:28:34;;;;;;;7.85;4.70;;;6.20;99.90;;;;;;5097779;28;20199;-85
2023/02/01 01:30:59;;;;;;;9.97;5.20;;;6.10;99.90;;;;;;5116430;28;20179;-84
2023/02/01 01:33:25;;;;;;;11.03;6.17;;;6.20;99.90;;;;;;5115919;28;20427;-85
2023/02/01 01:35:51;;;;;;;7.03;5.33;;;6.20;99.90;;;;;;5116178;28;20777;-85
2023/02/01 01:38:16;;;;;;;11.10;5.80;;;6.10;99.90;;;;;;5116130;28;20283;-86
2023/02/01 01:40:46;;;;;;;7.33;5.17;;;6.10;99.90;;;;;;5116034;28;20184;-85
2023/02/01 01:43:19;;;;;;;15.05;6.18;;;6.10;99.90;;;;;;5115995;28;20621;-86
2023/02/01 01:45:45;;;;;;;6.20;5.00;;;6.10;99.90;;;;;;5115919;28;20183;-86
2023/02/01 01:48:23;;;;;;;10.50;6.82;;;6.00;99.90;;;;;;5097453;28;20278;-86
2023/02/01 01:51:02;;;;;;;7.80;5.55;;;6.00;99.90;;;;;;5115797;28;20671;-86
2023/02/01 01:53:33;;;;;;;8.48;5.70;;;6.00;99.90;;;;;;5099859;28;20757;-86
2023/02/01 01:56:00;;;;;;;8.93;5.72;;;5.90;99.90;;;;;;5115409;28;20700;-86
2023/02/01 01:58:28;;;;;;;7.68;5.30;;;5.90;99.90;;;;;;5115495;28;20270;-84
2023/02/01 02:00:54;;;;;;;11.15;5.85;;;5.90;99.90;;;;;;5115483;28;20674;-85
2023/02/01 02:03:41;;;;;;;9.77;4.97;;;6.00;99.90;;;;;;5097296;28;20288;-85
2023/02/01 02:06:23;;;;;;;9.07;5.32;;;6.00;99.90;;;;;;5097584;28;20543;-85
2023/02/01 02:08:49;;;;;;;7.22;5.63;;;6.00;99.90;;;;;;5097341;28;20192;-84
2023/02/01 02:11:17;;;;;;;9.13;6.10;;;6.00;99.90;;;;;;5097691;28;20237;-85
2023/02/01 02:13:48;;;;;;;11.32;6.07;;;6.10;99.90;;;;;;5097101;28;20241;-85
2023/02/01 02:16:22;;;;;;;6.55;4.82;;;6.20;99.90;;;;;;5114993;28;20212;-86
2023/02/01 02:19:09;;;;;;;12.25;5.53;;;6.20;99.90;;;;;;5096847;28;20864;-85
2023/02/01 02:22:02;;;;;;;7.68;5.35;;;6.30;99.90;;;;;;5097016;28;20222;-85
2023/02/01 02:24:48;;;;;;;8.05;4.78;;;6.20;99.90;;;;;;5115058;28;20160;-85
2023/02/01 02:27:24;;;;;;;8.75;5.25;;;6.20;99.90;;;;;;5096787;28;20211;-85
2023/02/01 02:30:09;;;;;;;6.78;5.85;;;6.10;99.90;;;;;;5117562;28;20629;-85
2023/02/01 02:32:41;;;;;;;8.27;6.22;;;6.00;99.90;;;;;;5114913;28;20602;-86
2023/02/01 02:35:15;;;;;;;7.80;5.43;;;6.00;99.90;;;;;;5114907;28;20278;-85
2023/02/01 02:37:48;;;;;;;9.73;5.80;;;5.90;99.90;;;;;;5096560;28;20752;-85
2023/02/01 02:40:31;;;;;;;14.00;7.75;;;5.90;99.90;;;;;;5114819;28;20174;-85
2023/02/01 02:49:12;;;;;;;16.80;10.27;;;5.90;99.90;;;;;;5114502;28;20202;-85
2023/02/01 02:54:51;;;;;;;12.50;6.70;;;5.90;99.90;;;;;;5114667;28;20647;-85
2023/02/01 03:05:56;;;;;;;6.60;4.93;;;5.40;99.90;;;;;;5114408;28;20182;-85
2023/02/01 03:08:25;;;;;;;5.47;4.07;;;5.40;99.90;;;;;;5096052;28;20610;-86
2023/02/01 03:11:05;;;;;;;7.70;4.35;;;5.50;99.90;;;;;;5096502;28;20223;-85
2023/02/01 03:13:31;;;;;;;6.82;4.38;;;5.50;99.90;;;;;;5116395;28;20226;-85
2023/02/01 03:16:07;;;;;;;5.00;4.10;;;5.50;99.90;;;;;;5114667;28;20208;-86
2023/02/01 03:18:40;;;;;;;5.55;3.95;;;5.70;99.90;;;;;;5114108;28;20191;-85
2023/02/01 03:21:19;;;;;;;4.18;3.30;;;5.70;99.90;;;;;;5096056;28;20175;-85
2023/02/01 03:23:47;;;;;;;5.35;3.50;;;5.70;99.90;;;;;;5114131;28;20271;-85
2023/02/01 03:26:17;;;;;;;5.07;3.85;;;5.80;99.90;;;;;;5113953;28;20175;-85
2023/02/01 03:28:52;;;;;;;10.57;3.63;;;5.80;99.90;;;;;;5096114;28;20210;-85
2023/02/01 03:31:17;;;;;;;7.35;3.60;;;5.80;99.90;;;;;;5096003;28;20175;-85
2023/02/01 03:33:43;;;;;;;5.13;2.80;;;5.90;99.90;;;;;;5095635;28;20683;-85
2023/02/01 03:36:22;;;;;;;3.67;3.22;;;6.00;99.90;;;;;;5095867;28;20479;-85
2023/02/01 03:39:06;;;;;;;6.72;3.85;;;6.00;99.90;;;;;;5114082;28;20560;-84
2023/02/01 03:41:42;;;;;;;7.05;4.15;;;6.00;99.90;;;;;;5095758;28;20180;-85
2023/02/01 03:44:28;;;;;;;4.20;3.78;;;6.10;99.90;;;;;;5095779;28;20675;-85
2023/02/01 03:47:10;;;;;;;4.88;3.90;;;6.10;99.90;;;;;;5095918;28;20179;-86
2023/02/01 03:49:46;;;;;;;6.70;4.18;;;6.00;99.90;;;;;;5095738;28;20172;-83
2023/02/01 03:52:26;;;;;;;4.72;4.25;;;6.00;99.90;;;;;;5115909;28;20194;-84
2023/02/01 03:54:52;;;;;;;9.32;3.90;;;6.00;99.90;;;;;;5095838;28;20699;-85
2023/02/01 03:57:26;;;;;;;4.85;4.25;;;6.00;99.90;;;;;;5095533;28;20207;-86
2023/02/01 03:59:51;;;;;;;6.07;4.00;;;5.90;99.90;;;;;;5097430;28;20168;-86
2023/02/01 04:02:17;;;;;;;6.20;4.13;;;5.90;99.90;;;;;;5117789;28;20551;-86
2023/02/01 04:04:43;;;;;;;8.03;4.00;;;5.80;99.90;;;;;;5099486;28;20667;-85
2023/02/01 04:07:09;;;;;;;4.20;3.73;;;5.90;99.90;;;;;;5099467;28;20192;-86
2023/02/01 04:09:35;;;;;;;5.20;4.33;;;5.90;99.90;;;;;;5099397;28;20451;-84
2023/02/01 04:12:00;;;;;;;4.90;4.00;;;5.90;99.90;;;;;;5117444;28;20456;-85
2023/02/01 04:14:26;;;;;;;4.90;4.50;;;5.90;99.90;;;;;;5117496;28;20172;-84
2023/02/01 04:16:52;;;;;;;4.03;3.57;;;5.80;99.90;;;;;;5099457;28;20644;-85
2023/02/01 04:19:18;;;;;;;4.37;3.90;;;5.80;99.90;;;;;;5099212;28;20287;-83
2023/02/01 04:21:44;;;;;;;4.63;3.80;;;6.00;99.90;;;;;;5099277;28;20419;-84
2023/02/01 04:24:10;;;;;;;11.40;4.17;;;6.00;99.90;;;;;;5117402;28;20164;-84
2023/02/01 04:26:36;;;;;;;4.43;4.05;;;6.10;99.90;;;;;;5117699;28;20508;-84
2023/02/01 04:29:01;;;;;;;6.67;4.37;;;6.10;99.90;;;;;;5098918;28;20196;-85
2023/02/01 04:31:27;;;;;;;8.33;4.37;;;6.10;99.90;;;;;;5098952;28;20199;-84
2023/02/01 04:33:54;;;;;;;6.67;4.33;;;6.10;99.90;;;;;;5117105;28;20550;-85
2023/02/01 04:36:21;;;;;;;6.28;4.30;;;6.10;99.90;;;;;;5117022;28;20216;-85
2023/02/01 04:38:48;;;;;;;4.78;3.70;;;6.20;99.90;;;;;;5117134;28;20643;-84
2023/02/01 04:41:15;;;;;;;6.72;4.63;;;6.30;99.90;;;;;;5117352;28;20247;-85
2023/02/01 04:43:41;;;;;;;8.77;4.60;;;6.30;99.90;;;;;;5100831;28;20207;-86
2023/02/01 04:46:06;;;;;;;5.50;4.07;;;6.30;99.90;;;;;;5098721;28;20641;-85
2023/02/01 04:48:32;;;;;;;7.37;4.37;;;6.20;99.90;;;;;;5116858;28;20552;-84
2023/02/01 04:50:58;;;;;;;6.63;3.90;;;6.20;99.90;;;;;;5117166;28;20190;-84
2023/02/01 04:53:24;;;;;;;6.17;4.43;;;6.20;99.90;;;;;;5116539;28;20191;-85
2023/02/01 04:55:50;;;;;;;8.00;4.70;;;6.30;99.90;;;;;;5098537;28;20243;-83
2023/02/01 04:58:15;;;;;;;5.00;3.72;;;6.30;99.90;;;;;;5098379;28;20206;-83
2023/02/01 05:00:41;;;;;;;7.07;4.70;;;6.30;99.90;;;;;;5116656;28;20175;-84
2023/02/01 05:03:07;;;;;;;7.40;4.40;;;6.30;99.90;;;;;;5116614;28;20192;-84
2023/02/01 05:05:32;;;;;;;4.93;4.30;;;6.30;99.90;;;;;;5098313;28;20236;-84
2023/02/01 05:07:58;;;;;;;4.40;4.00;;;6.30;99.90;;;;;;5116510;28;20200;-84
2023/02/01 05:10:24;;;;;;;7.10;5.17;;;6.30;99.90;;;;;;5115672;28;20668;-85
2023/02/01 05:15:34;;;;;;;7.07;5.05;;;6.20;99.90;;;;;;5098789;28;20219;-84
2023/02/01 05:17:59;;;;;;;13.67;5.30;;;6.20;99.90;;;;;;5114593;28;20211;-84
2023/02/01 05:20:25;;;;;;;8.73;5.37;;;6.30;99.90;;;;;;5087320;28;20172;-84
2023/02/01 05:22:51;;;;;;;7.93;5.23;;;6.30;99.90;;;;;;5115450;28;20636;-85
2023/02/01 05:25:17;;;;;;;12.83;6.27;;;6.30;99.90;;;;;;5095965;28;20216;-86
2023/02/01 05:27:42;;;;;;;10.20;6.33;;;6.30;99.90;;;;;;5098896;28;20449;-84
2023/02/01 05:30:09;;;;;;;10.93;7.00;;;6.20;99.90;;;;;;5101814;28;20641;-84
2023/02/01 05:32:35;;;;;;;35.00;16.65;;;6.10;99.90;;;;;;5106276;28;20476;-84
2023/02/01 05:35:00;;;;;;;20.20;10.83;;;6.00;99.90;;;;;;5097621;28;20749;-84
2023/02/01 05:37:26;;;;;;;28.70;14.00;;;5.90;99.90;;;;;;5095719;28;20422;-85
2023/02/01 05:39:52;;;;;;;28.67;15.40;;;5.80;99.90;;;;;;5082802;28;20183;-84
2023/02/01 05:42:17;;;;;;;13.37;10.20;;;5.70;99.90;;;;;;5095372;28;20203;-85
2023/02/01 05:44:43;;;;;;;12.00;7.57;;;5.70;99.90;;;;;;5084397;28;20168;-84
2023/02/01 05:47:09;;;;;;;9.13;7.23;;;5.70;99.90;;;;;;5108303;28;20307;-84
2023/02/01 05:49:35;;;;;;;8.03;6.97;;;5.80;99.90;;;;;;5086143;28;20768;-84
2023/02/01 05:52:00;;;;;;;12.30;6.90;;;5.80;99.90;;;;;;5095584;28;20964;-84
2023/02/01 05:54:26;;;;;;;13.20;8.20;;;5.80;99.90;;;;;;5076748;28;20180;-83
2023/02/01 05:56:52;;;;;;;13.00;7.30;;;5.80;99.90;;;;;;5098050;28;20176;-85
2023/02/01 05:59:18;;;;;;;11.13;6.70;;;5.70;99.90;;;;;;5104324;28;20271;-83
2023/02/01 06:01:43;;;;;;;23.23;14.93;;;5.70;99.90;;;;;;5105993;28;20428;-84
2023/02/01 06:04:09;;;;;;;18.43;11.27;;;5.60;99.90;;;;;;5094748;28;20208;-82
2023/02/01 06:06:36;;;;;;;11.60;8.20;;;5.60;99.90;;;;;;5095787;28;20294;-84
2023/02/01 06:09:02;;;;;;;13.20;7.68;;;5.50;99.90;;;;;;5096234;28;20526;-84
2023/02/01 06:11:28;;;;;;;10.93;6.15;;;5.50;99.90;;;;;;5096832;28;20867;-84
2023/02/01 06:13:55;;;;;;;22.20;11.77;;;5.50;99.90;;;;;;5094201;28;20207;-84
2023/02/01 06:16:21;;;;;;;24.50;14.45;;;5.60;99.90;;;;;;5089253;28;20445;-84
2023/02/01 06:18:47;;;;;;;14.55;8.93;;;5.50;99.90;;;;;;5103562;28;20199;-84
2023/02/01 06:21:23;;;;;;;9.68;6.88;;;5.40;99.90;;;;;;5087188;28;20207;-84
2023/02/01 06:23:51;;;;;;;8.88;5.30;;;5.50;99.90;;;;;;5083549;28;20275;-83
2023/02/01 06:26:17;;;;;;;6.78;5.20;;;5.70;99.90;;;;;;5100393;28;20184;-83
2023/02/01 06:28:43;;;;;;;38.13;19.47;;;5.70;99.90;;;;;;5084347;28;20286;-84
2023/02/01 06:31:09;;;;;;;7.80;6.67;;;5.70;99.90;;;;;;5083913;28;20859;-84
2023/02/01 06:33:36;;;;;;;11.50;9.40;;;5.70;99.90;;;;;;5082544;28;20444;-84
2023/02/01 06:36:06;;;;;;;9.57;5.38;;;5.80;99.90;;;;;;5074869;28;20469;-84
2023/02/01 06:38:34;;;;;;;7.05;6.35;;;5.80;99.90;;;;;;5098202;28;20266;-85
2023/02/01 06:41:00;;;;;;;8.88;5.35;;;5.80;99.90;;;;;;5093452;28;20189;-85
2023/02/01 06:43:27;;;;;;;8.40;5.47;;;5.80;99.90;;;;;;5077089;28;20199;-83
2023/02/01 06:45:59;;;;;;;8.00;5.30;;;5.80;99.90;;;;;;5083238;28;20276;-84
2023/02/01 06:48:24;;;;;;;5.75;5.13;;;5.90;99.90;;;;;;5101418;28;20565;-84
2023/02/01 06:50:50;;;;;;;8.23;6.50;;;5.90;99.90;;;;;;5104121;28;20181;-85
2023/02/01 06:53:16;;;;;;;8.13;6.37;;;5.90;99.90;;;;;;5112908;28;20727;-84
2023/02/01 06:55:50;;;;;;;19.20;15.93;;;5.80;99.90;;;;;;5093015;28;20211;-84
2023/02/01 06:58:16;;;;;;;26.30;17.48;;;5.80;99.90;;;;;;5094224;28;20731;-86
2023/02/01 07:00:42;;;;;;;21.83;16.63;;;5.90;99.90;;;;;;5100545;28;20181;-84
2023/02/01 07:03:07;;;;;;;13.33;8.23;;;5.90;99.90;;;;;;5095282;28;20322;-85
2023/02/01 07:05:33;;;;;;;9.47;5.60;;;5.90;99.90;;;;;;5076516;28;20180;-84
2023/02/01 07:07:59;;;;;;;9.30;7.87;;;5.90;99.90;;;;;;5095409;28;20224;-84
2023/02/01 07:10:25;;;;;;;7.50;6.23;;;6.00;99.90;;;;;;5084907;28;20176;-83
2023/02/01 07:12:50;;;;;;;6.00;5.25;;;6.10;99.90;;;;;;5090259;28;20210;-84
2023/02/01 07:15:16;;;;;;;7.93;5.20;;;6.20;99.90;;;;;;5107896;28;20672;-84
2023/02/01 07:17:42;;;;;;;7.23;5.23;;;6.20;99.90;;;;;;5104818;28;20192;-84
2023/02/01 07:20:08;;;;;;;10.80;6.70;;;6.30;99.90;;;;;;5075810;28;20695;-84
2023/02/01 07:22:34;;;;;;;16.70;10.43;;;6.50;99.90;;;;;;5081018;28;20198;-85
2023/02/01 07:24:59;;;;;;;13.63;9.50;;;6.60;99.90;;;;;;5098623;28;20243;-84
2023/02/01 07:27:25;;;;;;;7.27;5.63;;;6.80;99.90;;;;;;5096524;28;21867;-84
2023/02/01 07:29:52;;;;;;;7.87;6.40;;;7.00;99.90;;;;;;5094312;28;20218;-84
2023/02/01 07:32:17;;;;;;;8.30;5.45;;;7.20;99.90;;;;;;5105685;28;20207;-84
2023/02/01 07:34:44;;;;;;;9.23;6.30;;;7.50;99.90;;;;;;5095494;28;20201;-85
2023/02/01 07:37:10;;;;;;;7.47;4.63;;;7.70;99.90;;;;;;5091955;28;20199;-84
2023/02/01 07:39:36;;;;;;;7.40;4.90;;;7.90;99.90;;;;;;5098413;28;20183;-83
2023/02/01 07:42:01;;;;;;;5.87;4.50;;;8.00;99.90;;;;;;5097751;28;20186;-85
2023/02/01 07:44:27;;;;;;;4.30;3.90;;;8.20;99.90;;;;;;5094293;28;20203;-85
2023/02/01 07:46:53;;;;;;;6.60;4.50;;;8.30;99.90;;;;;;5098886;28;20183;-84
2023/02/01 07:49:18;;;;;;;5.60;4.07;;;8.60;99.90;;;;;;5117413;28;20174;-85
2023/02/01 07:51:44;;;;;;;5.90;4.73;;;8.90;99.90;;;;;;5094514;28;20574;-84
2023/02/01 07:54:10;;;;;;;6.63;4.27;;;9.30;99.90;;;;;;5091059;28;20180;-83
2023/02/01 07:56:35;;;;;;;6.47;4.77;;;9.70;99.90;;;;;;5092469;28;20306;-85
2023/02/01 07:59:01;;;;;;;5.60;3.93;;;10.10;99.90;;;;;;5083783;28;20680;-86
2023/02/01 08:01:28;;;;;;;5.00;3.80;;;10.60;99.90;;;;;;5105045;28;20215;-83
2023/02/01 08:03:59;;;;;;;6.35;4.30;;;11.00;99.90;;;;;;5083559;28;20428;-86
2023/02/01 08:06:26;;;;;;;4.68;3.88;;;11.40;99.90;;;;;;5106273;28;20704;-88
2023/02/01 08:08:53;;;;;;;5.68;4.15;;;12.30;99.90;;;;;;5095337;28;20196;-86
2023/02/01 08:11:21;;;;;;;6.20;4.00;;;13.00;99.90;;;;;;5088977;28;20235;-86
2023/02/01 08:13:47;;;;;;;4.73;3.87;;;13.00;99.90;;;;;;5088072;28;20436;-85
2023/02/01 08:16:15;;;;;;;4.90;3.60;;;12.70;99.90;;;;;;5096042;28;20868;-88
2023/02/01 08:18:41;;;;;;;7.97;4.67;;;12.70;99.90;;;;;;5085894;28;20474;-89
2023/02/01 08:21:08;;;;;;;4.90;4.40;;;12.80;99.90;;;;;;5109513;28;20902;-89
2023/02/01 08:23:35;;;;;;;5.63;4.40;;;13.20;99.90;;;;;;5093491;28;20441;-88
2023/02/01 08:26:14;;;;;;;5.13;3.87;;;13.60;99.90;;;;;;5106070;28;20513;-88
2023/02/01 08:28:43;;;;;;;5.60;5.07;;;14.10;99.90;;;;;;5114124;28;20527;-86
2023/02/01 08:31:12;;;;;;;4.30;3.90;;;14.00;99.10;;;;;;5078992;28;20446;-88
2023/02/01 08:33:37;;;;;;;4.90;3.87;;;14.00;99.20;;;;;;5106841;28;20483;-86
2023/02/01 08:36:05;;;;;;;6.63;4.70;;;14.50;99.00;;;;;;5093907;28;20864;-86
2023/02/01 08:38:31;;;;;;;4.57;4.13;;;15.30;97.80;;;;;;5092513;28;20486;-86
2023/02/01 08:40:56;;;;;;;4.77;4.27;;;16.20;96.50;;;;;;5101932;28;20831;-87
2023/02/01 08:43:23;;;;;;;4.17;3.73;;;16.80;94.60;;;;;;5091178;28;20998;-88
2023/02/01 08:45:50;;;;;;;5.03;4.30;;;17.20;93.60;;;;;;5094680;28;20765;-88
2023/02/01 08:48:16;;;;;;;4.80;4.07;;;17.30;92.50;;;;;;5112632;28;20435;-88
2023/02/01 08:50:41;;;;;;;5.00;3.80;;;17.40;92.20;;;;;;5109302;28;20427;-86
2023/02/01 08:53:07;;;;;;;3.57;3.27;;;17.80;91.40;;;;;;5100754;28;20449;-86
2023/02/01 08:55:33;;;;;;;4.17;2.97;;;18.20;90.60;;;;;;5105675;28;20235;-91
2023/02/01 08:57:58;;;;;;;3.03;2.47;;;18.60;88.90;;;;;;5088645;28;20253;-87
2023/02/01 09:00:24;;;;;;;2.50;2.30;;;18.60;87.50;;;;;;5107679;28;20529;-88
2023/02/01 09:02:50;;;;;;;5.40;2.60;;;18.40;87.30;;;;;;5088384;28;20228;-88
2023/02/01 09:05:18;;;;;;;4.57;2.70;;;18.20;87.00;;;;;;5109222;28;20612;-89
2023/02/01 09:07:44;;;;;;;3.27;2.63;;;17.50;86.40;;;;;;5108988;28;20223;-87
2023/02/01 09:10:10;;;;;;;4.70;2.33;;;16.50;87.60;;;;;;5091064;28;20436;-89
2023/02/01 09:12:37;;;;;;;3.83;2.23;;;15.50;89.50;;;;;;5111537;27;20704;-87
2023/02/01 09:15:06;;;;;;;3.80;2.60;;;14.70;90.30;;;;;;5105431;28;20566;-90
2023/02/01 09:17:32;;;;;;;3.67;3.00;;;13.90;91.00;;;;;;5087227;28;20512;-87
2023/02/01 09:19:58;;;;;;;3.57;2.30;;;13.00;91.90;;;;;;5099397;28;21007;-86
2023/02/01 09:22:24;;;;;;;3.30;3.00;;;12.40;92.80;;;;;;5105230;28;20504;-85
2023/02/01 09:24:50;;;;;;;2.90;2.33;;;11.90;93.40;;;;;;5089816;28;20420;-85
2023/02/01 09:27:16;;;;;;;3.30;2.53;;;11.50;93.80;;;;;;5099466;28;20204;-88
2023/02/01 09:29:42;;;;;;;3.72;2.45;;;11.30;94.40;;;;;;5085443;28;20195;-88
2023/02/01 09:32:07;;;;;;;2.97;2.50;;;11.10;94.90;;;;;;5099264;28;20207;-88
2023/02/01 09:34:34;;;;;;;2.57;2.30;;;11.00;95.30;;;;;;5089181;28;20219;-86
2023/02/01 09:37:00;;;;;;;3.53;2.90;;;10.80;95.90;;;;;;5104069;28;20311;-87
2023/02/01 09:39:26;;;;;;;6.78;3.25;;;10.70;96.10;;;;;;5081642;28;20177;-86
2023/02/01 09:41:55;;;;;;;4.50;2.70;;;10.60;96.30;;;;;;5081269;28;20180;-87
2023/02/01 09:44:47;;;;;;;5.03;2.72;;;10.60;96.60;;;;;;5081411;28;20190;-85
2023/02/01 09:47:18;;;;;;;2.78;2.58;;;10.50;97.00;;;;;;5080895;28;20784;-86
2023/02/01 09:50:16;;;;;;;4.70;2.67;;;10.40;97.00;;;;;;5081801;28;20188;-86
2023/02/01 09:52:48;;;;;;;4.28;2.80;;;10.20;97.30;;;;;;5108886;28;20214;-86
2023/02/01 09:55:32;;;;;;;3.08;2.42;;;10.10;97.80;;;;;;5085477;28;20306;-86
2023/02/01 09:58:07;;;;;;;2.75;2.45;;;10.10;98.00;;;;;;5082700;28;20203;-86
2023/02/01 10:00:38;;;;;;;4.43;3.42;;;10.00;98.10;;;;;;5098873;28;20644;-85
2023/02/01 10:03:09;;;;;;;6.00;4.55;;;9.90;98.20;;;;;;5101545;28;20197;-88
2023/02/01 10:05:57;;;;;;;6.60;3.75;;;9.90;98.80;;;;;;5104019;28;20283;-88
2023/02/01 10:08:29;;;;;;;6.70;3.03;;;10.00;98.90;;;;;;5103396;28;20217;-88
2023/02/01 10:11:04;;;;;;;6.28;3.38;;;10.10;99.10;;;;;;5088851;28;20346;-88
2023/02/01 10:13:58;;;;;;;3.22;2.88;;;10.40;99.40;;;;;;5082580;28;20747;-87
2023/02/01 10:16:24;;;;;;;3.17;2.72;;;10.80;99.10;;;;;;5084326;28;20340;-86
2023/02/01 10:18:56;;;;;;;3.23;2.93;;;11.10;98.20;;;;;;5110879;28;20278;-88
2023/02/01 10:21:22;;;;;;;4.03;2.65;;;11.40;98.30;;;;;;5109266;28;20656;-86
2023/02/01 10:24:09;;;;;;;3.33;2.87;;;11.80;97.90;;;;;;5088077;28;20204;-88
2023/02/01 10:26:42;;;;;;;4.10;2.43;;;12.10;97.90;;;;;;5085180;28;20189;-87
2023/02/01 10:29:23;;;;;;;3.80;2.70;;;12.50;97.10;;;;;;5091251;28;20527;-85
2023/02/01 10:31:49;;;;;;;3.13;2.57;;;12.70;96.80;;;;;;5078215;28;20441;-87
2023/02/01 10:34:21;;;;;;;5.03;3.00;;;12.60;96.50;;;;;;5107627;28;20420;-86
2023/02/01 10:36:52;;;;;;;3.30;2.53;;;12.40;96.40;;;;;;5099278;28;20508;-89
2023/02/01 10:39:18;;;;;;;4.70;3.47;;;12.20;96.50;;;;;;5104640;28;20404;-88
2023/02/01 10:41:44;;;;;;;5.77;2.93;;;12.00;96.50;;;;;;5088250;28;20485;-86
2023/02/01 10:44:16;;;;;;;3.00;2.67;;;11.90;96.50;;;;;;5090646;28;20408;-86
2023/02/01 10:46:43;;;;;;;3.00;2.70;;;11.70;96.90;;;;;;5105165;28;20268;-87
2023/02/01 10:49:17;;;;;;;7.43;3.00;;;11.50;97.10;;;;;;5114070;28;20429;-86
2023/02/01 10:51:48;;;;;;;7.53;3.90;;;11.40;97.60;;;;;;5087047;28;20433;-86
2023/02/01 10:54:20;;;;;;;3.60;2.60;;;11.30;97.90;;;;;;5109810;28;20198;-87
2023/02/01 10:57:09;;;;;;;3.60;3.28;;;11.20;98.00;;;;;;5089568;28;20207;-87
2023/02/01 10:59:36;;;;;;;4.28;3.08;;;11.20;98.30;;;;;;5087067;28;20190;-87
2023/02/01 11:02:27;;;;;;;5.07;2.70;;;11.10;98.20;;;;;;5086449;28;20211;-86
2023/02/01 11:05:03;;;;;;;4.47;2.83;;;11.10;98.40;;;;;;5077164;28;20214;-86
2023/02/01 11:07:30;;;;;;;4.25;2.75;;;11.10;98.60;;;;;;5090356;28;20401;-87
2023/02/01 11:09:57;;;;;;;3.47;3.00;;;11.00;98.80;;;;;;5107739;28;20171;-86
2023/02/01 11:12:32;;;;;;;3.65;2.75;;;11.00;98.70;;;;;;5088967;28;20285;-85
2023/02/01 11:15:21;;;;;;;4.22;3.50;;;11.00;99.00;;;;;;5102524;28;20253;-86
2023/02/01 11:17:51;;;;;;;3.70;3.40;;;11.00;99.30;;;;;;5104863;28;20248;-88
2023/02/01 11:20:20;;;;;;;6.22;3.17;;;11.00;99.60;;;;;;5105711;28;20282;-85
2023/02/01 11:22:58;;;;;;;3.45;3.15;;;11.00;99.70;;;;;;5107424;28;20557;-87
2023/02/01 11:25:30;;;;;;;3.25;2.90;;;11.00;99.90;;;;;;5110096;28;20190;-86
2023/02/01 11:27:57;;;;;;;6.38;3.30;;;11.10;99.90;;;;;;5108320;28;20200;-86
2023/02/01 11:30:40;;;;;;;2.92;2.40;;;11.20;99.90;;;;;;5079027;28;20196;-88
2023/02/01 11:33:09;;;;;;;3.60;3.15;;;11.30;99.90;;;;;;5103863;28;20980;-85
2023/02/01 11:35:39;;;;;;;5.00;3.50;;;11.30;99.90;;;;;;5101924;28;20247;-88
2023/02/01 11:38:17;;;;;;;4.22;3.47;;;11.30;99.90;;;;;;5093055;28;20212;-86
2023/02/01 11:40:43;;;;;;;4.35;3.40;;;11.40;99.90;;;;;;5092155;28;20197;-87
2023/02/01 11:43:18;;;;;;;4.13;3.40;;;11.40;99.90;;;;;;5106580;28;20192;-85
2023/02/01 11:46:20;;;;;;;4.55;3.17;;;11.30;99.90;;;;;;5083413;28;20190;-87
2023/02/01 11:48:45;;;;;;;5.45;4.82;;;11.30;99.90;;;;;;5086066;28;20199;-85
2023/02/01 11:51:11;;;;;;;3.80;3.50;;;11.30;99.90;;;;;;5109812;28;20187;-86
2023/02/01 11:54:18;;;;;;;4.80;3.57;;;11.20;99.90;;;;;;5079825;28;20192;-88
2023/02/01 11:56:54;;;;;;;4.20;3.78;;;11.20;99.90;;;;;;5012699;28;20233;-87
2023/02/01 11:59:35;;;;;;;5.10;3.20;;;11.10;99.90;;;;;;5096391;28;20184;-85
2023/02/01 12:02:38;;;;;;;4.50;3.60;;;11.20;99.90;;;;;;5080618;28;20187;-86
2023/02/01 12:05:22;;;;;;;3.00;2.70;;;11.30;99.90;;;;;;5081580;28;20775;-85
2023/02/01 12:08:13;;;;;;;2.70;2.50;;;11.30;99.90;;;;;;5087220;28;20537;-86
2023/02/01 12:10:45;;;;;;;3.10;2.22;;;11.40;99.90;;;;;;5088229;28;20207;-88
2023/02/01 12:13:33;;;;;;;6.50;3.78;;;11.40;99.80;;;;;;5101303;28;20679;-87
2023/02/01 12:16:06;;;;;;;2.20;2.00;;;11.40;99.40;;;;;;5089628;28;20254;-85
2023/02/01 12:18:50;;;;;;;2.65;2.40;;;11.40;99.40;;;;;;5098420;28;20199;-85
2023/02/01 12:21:37;;;;;;;5.10;2.00;;;11.50;99.60;;;;;;5082171;28;20222;-85
2023/02/01 12:24:30;;;;;;;3.40;2.00;;;11.50;98.90;;;;;;5102521;28;20393;-87
2023/02/01 12:27:22;;;;;;;3.10;2.80;;;11.60;98.90;;;;;;5109029;28;20565;-87
2023/02/01 12:29:56;;;;;;;1.73;1.63;;;11.70;98.90;;;;;;5105449;27;20191;-87
2023/02/01 12:32:25;;;;;;;2.75;2.55;;;11.80;98.90;;;;;;5087726;28;20604;-85
2023/02/01 12:35:24;;;;;;;2.40;2.20;;;11.90;99.20;;;;;;5104634;28;20180;-88
2023/02/01 12:38:17;;;;;;;2.10;1.90;;;11.90;99.10;;;;;;5044602;28;20258;-88
2023/02/01 12:41:03;;;;;;;2.67;2.10;;;12.00;98.90;;;;;;5084123;28;20451;-86
2023/02/01 12:43:40;;;;;;;2.53;2.25;;;12.00;98.50;;;;;;5105340;28;20687;-88
2023/02/01 12:46:26;;;;;;;3.27;1.97;;;12.00;98.30;;;;;;5105776;28;20179;-87
2023/02/01 12:49:05;;;;;;;2.70;2.50;;;12.00;98.20;;;;;;5091003;28;20463;-84
2023/02/01 12:51:41;;;;;;;1.90;1.80;;;11.90;98.50;;;;;;5097749;28;20427;-88
2023/02/01 12:54:21;;;;;;;6.50;2.30;;;11.90;98.60;;;;;;5090463;28;20336;-88
2023/02/01 12:57:02;;;;;;;3.25;2.65;;;11.80;98.80;;;;;;5077036;27;20494;-88
2023/02/01 12:59:31;;;;;;;4.28;2.15;;;11.80;98.70;;;;;;5085671;28;20188;-85
2023/02/01 13:02:16;;;;;;;2.25;1.98;;;11.80;98.60;;;;;;5088278;28;20187;-88
2023/02/01 13:05:13;;;;;;;3.08;2.50;;;11.80;98.70;;;;;;5099529;28;20607;-88
2023/02/01 13:08:04;;;;;;;2.38;1.58;;;11.80;98.50;;;;;;5105799;28;20238;-86
2023/02/01 13:10:40;;;;;;;2.97;2.75;;;11.80;98.50;;;;;;5099368;28;20211;-85
2023/02/01 13:13:22;;;;;;;12.75;9.00;;;11.70;98.60;;;;;;5099275;27;20232;-88
2023/02/01 13:15:54;;;;;;;6.38;5.05;;;11.70;98.40;;;;;;5108695;28;20218;-84
2023/02/01 13:18:22;;;;;;;1.70;1.60;;;11.70;98.60;;;;;;5104999;28;20215;-85
2023/02/01 13:21:06;;;;;;;2.88;1.80;;;11.60;98.40;;;;;;5104511;28;20436;-89
2023/02/01 13:23:38;;;;;;;2.38;1.60;;;11.50;98.40;;;;;;5083854;28;20203;-88
2023/02/01 13:26:04;;;;;;;1.70;1.60;;;11.40;98.60;;;;;;5104545;28;20203;-89
2023/02/01 13:28:47;;;;;;;1.70;1.45;;;11.30;98.70;;;;;;5108474;28;20258;-88